createdAt,value
2022-08-25T00:00:44.609Z,100.00
2022-08-25T00:03:47.711Z,100.00
2022-08-25T00:06:51.200Z,100.00
2022-08-25T00:09:53.591Z,100.00
2022-08-25T00:12:55.798Z,100.00
2022-08-25T00:15:58.729Z,100.00
2022-08-25T00:19:05.590Z,100.00
2022-08-25T00:22:08.204Z,100.00
2022-08-25T00:25:10.314Z,100.00
2022-08-25T00:28:13.984Z,100.00
2022-08-25T00:31:18.723Z,100.00
2022-08-25T00:34:25.661Z,100.00
2022-08-25T00:37:27.871Z,100.00
2022-08-25T00:40:30.369Z,100.00
2022-08-25T00:43:42.629Z,100.00
2022-08-25T00:46:49.408Z,100.00
2022-08-25T00:49:59.582Z,100.00
2022-08-25T00:53:03.159Z,100.00
2022-08-25T00:56:05.585Z,100.00
2022-08-25T00:59:08.185Z,100.00
2022-08-25T01:02:14.005Z,100.00
2022-08-25T01:05:19.242Z,100.00
2022-08-25T01:08:26.329Z,100.00
2022-08-25T01:11:31.664Z,100.00
2022-08-25T01:14:34.971Z,100.00
2022-08-25T01:17:52.343Z,100.00
2022-08-25T01:20:59.717Z,100.00
2022-08-25T01:24:02.247Z,100.00
2022-08-25T01:27:05.036Z,100.00
2022-08-25T01:30:07.776Z,100.00
2022-08-25T01:33:11.878Z,100.00
2022-08-25T01:36:18.722Z,100.00
2022-08-25T01:39:21.242Z,100.00
2022-08-25T01:42:32.898Z,100.00
2022-08-25T01:45:35.592Z,100.00
2022-08-25T01:48:38.538Z,100.00
2022-08-25T01:52:36.303Z,100.00
2022-08-25T01:55:55.812Z,100.00
2022-08-25T01:58:58.196Z,100.00
2022-08-25T02:02:00.864Z,100.00
2022-08-25T02:05:07.405Z,100.00
2022-08-25T02:08:11.566Z,100.00
2022-08-25T02:11:15.103Z,100.00
2022-08-25T02:14:18.386Z,100.00
2022-08-25T02:17:20.756Z,100.00
2022-08-25T02:20:24.019Z,100.00
2022-08-25T02:23:27.112Z,100.00
2022-08-25T02:26:31.003Z,100.00
2022-08-25T02:29:33.873Z,100.00
2022-08-25T02:32:36.023Z,100.00
2022-08-25T02:35:39.008Z,100.00
2022-08-25T02:38:41.730Z,100.00
2022-08-25T02:41:44.223Z,100.00
2022-08-25T02:44:46.352Z,100.00
2022-08-25T02:47:49.079Z,100.00
2022-08-25T02:50:52.824Z,100.00
2022-08-25T02:53:56.277Z,100.00
2022-08-25T02:56:58.416Z,100.00
2022-08-25T03:00:00.911Z,100.00
2022-08-25T03:03:03.400Z,100.00
2022-08-25T03:06:10.975Z,100.00
2022-08-25T03:09:13.815Z,100.00
2022-08-25T03:12:17.666Z,100.00
2022-08-25T03:15:19.830Z,100.00
2022-08-25T03:18:23.108Z,100.00
2022-08-25T03:21:27.723Z,100.00
2022-08-25T03:24:30.136Z,100.00
2022-08-25T03:27:32.667Z,100.00
2022-08-25T03:30:35.223Z,100.00
2022-08-25T03:33:38.380Z,100.00
2022-08-25T03:36:40.918Z,100.00
2022-08-25T03:39:43.179Z,100.00
2022-08-25T03:42:46.481Z,100.00
2022-08-25T03:45:48.797Z,100.00
2022-08-25T03:48:52.112Z,100.00
2022-08-25T03:51:55.047Z,100.00
2022-08-25T03:54:58.001Z,100.00
2022-08-25T03:58:00.190Z,100.00
2022-08-25T04:01:02.609Z,100.00
2022-08-25T04:04:06.486Z,100.00
2022-08-25T04:07:08.707Z,100.00
2022-08-25T04:10:12.421Z,100.00
2022-08-25T04:13:14.605Z,100.00
2022-08-25T04:16:28.205Z,100.00
2022-08-25T04:19:30.514Z,100.00
2022-08-25T04:22:32.889Z,100.00
2022-08-25T04:25:42.803Z,100.00
2022-08-25T04:28:46.548Z,100.00
2022-08-25T04:31:50.387Z,100.00
2022-08-25T04:34:52.905Z,100.00
2022-08-25T04:37:55.030Z,100.00
2022-08-25T04:40:59.388Z,100.00
2022-08-25T04:44:02.764Z,100.00
2022-08-25T04:47:05.454Z,100.00
2022-08-25T04:50:08.403Z,100.00
2022-08-25T04:53:11.606Z,100.00
2022-08-25T04:56:15.482Z,100.00
2022-08-25T04:59:18.904Z,100.00
2022-08-25T05:02:22.001Z,100.00
2022-08-25T05:05:24.683Z,100.00
2022-08-25T05:08:26.999Z,100.00
2022-08-25T05:11:29.582Z,100.00
2022-08-25T05:14:32.701Z,100.00
2022-08-25T05:17:35.076Z,100.00
2022-08-25T05:20:37.826Z,100.00
2022-08-25T05:23:40.810Z,100.00
2022-08-25T05:26:42.952Z,100.00
2022-08-25T05:29:45.388Z,100.00
2022-08-25T05:32:47.481Z,100.00
2022-08-25T05:35:49.856Z,100.00
2022-08-25T05:38:53.917Z,100.00
2022-08-25T05:41:56.373Z,100.00
2022-08-25T05:44:58.594Z,100.00
2022-08-25T05:48:00.964Z,100.00
2022-08-25T05:51:05.080Z,100.00
2022-08-25T05:54:07.534Z,100.00
2022-08-25T05:57:09.719Z,100.00
2022-08-25T06:00:13.226Z,100.00
2022-08-25T06:03:16.820Z,100.00
2022-08-25T06:06:19.037Z,100.00
2022-08-25T06:09:22.973Z,100.00
2022-08-25T06:12:25.133Z,100.00
2022-08-25T06:15:27.948Z,100.00
2022-08-25T06:18:30.108Z,100.00
2022-08-25T06:21:32.589Z,100.00
2022-08-25T06:24:34.884Z,100.00
2022-08-25T06:27:38.290Z,100.00
2022-08-25T06:30:40.425Z,100.00
2022-08-25T06:33:44.186Z,100.00
2022-08-25T06:36:48.949Z,100.00
2022-08-25T06:39:52.022Z,100.00
2022-08-25T06:42:54.421Z,100.00
2022-08-25T06:45:57.633Z,100.00
2022-08-25T06:49:00.787Z,100.00
2022-08-25T06:52:04.284Z,100.00
2022-08-25T06:55:06.809Z,100.00
2022-08-25T06:58:10.201Z,100.00
2022-08-25T07:01:20.514Z,100.00
2022-08-25T07:04:23.224Z,96.04
2022-08-25T07:07:25.364Z,92.04
2022-08-25T07:10:48.125Z,90.66
2022-08-25T07:13:51.200Z,92.01
2022-08-25T07:16:53.601Z,91.47
2022-08-25T07:20:01.582Z,92.66
2022-08-25T07:23:04.363Z,91.92
2022-08-25T07:26:36.401Z,91.88
2022-08-25T07:29:42.203Z,88.84
2022-08-25T07:32:45.044Z,89.22
2022-08-25T07:35:47.447Z,89.49
2022-08-25T07:38:49.598Z,89.46
2022-08-25T07:41:53.863Z,86.63
2022-08-25T07:44:56.089Z,87.34
2022-08-25T07:48:01.179Z,85.15
2022-08-25T07:51:12.420Z,81.99
2022-08-25T07:54:16.567Z,77.35
2022-08-25T07:57:18.731Z,75.85
2022-08-25T08:00:21.284Z,72.12
2022-08-25T08:03:44.534Z,69.92
2022-08-25T08:06:45.899Z,67.50
2022-08-25T08:09:55.809Z,66.40
2022-08-25T08:13:02.988Z,64.98
2022-08-25T08:16:10.076Z,62.32
2022-08-25T08:19:13.431Z,58.35
2022-08-25T08:22:16.406Z,57.53
2022-08-25T08:25:21.562Z,56.06
2022-08-25T08:28:30.516Z,56.82
2022-08-25T08:31:32.664Z,55.71
2022-08-25T08:34:35.278Z,54.96
2022-08-25T08:37:42.079Z,53.26
2022-08-25T08:42:10.785Z,53.39
2022-08-25T08:45:43.906Z,51.88
2022-08-25T08:49:01.886Z,50.00
2022-08-25T08:52:05.466Z,50.43
2022-08-25T08:55:31.763Z,50.74
2022-08-25T08:58:50.137Z,49.02
2022-08-25T09:01:59.231Z,48.37
2022-08-25T09:05:07.026Z,49.30
2022-08-25T09:08:13.511Z,47.01
2022-08-25T09:11:27.279Z,47.56
2022-08-25T09:14:53.924Z,46.37
2022-08-25T10:57:39.826Z,44.33
2022-08-25T11:00:54.203Z,46.01
2022-08-25T11:04:04.582Z,43.88
2022-08-25T11:07:24.893Z,44.74
2022-08-25T11:10:38.569Z,45.05
2022-08-25T11:13:58.967Z,45.00
2022-08-25T11:17:16.882Z,42.19
2022-08-25T11:20:26.906Z,44.11
2022-08-25T11:23:40.313Z,43.30
2022-08-25T11:26:51.918Z,44.04
2022-08-25T11:30:08.387Z,43.82
2022-08-25T11:33:19.495Z,43.41
2022-08-25T11:36:33.984Z,44.30
2022-08-25T11:39:39.476Z,43.95
2022-08-25T11:43:08.181Z,42.48
2022-08-25T11:46:41.370Z,44.72
2022-08-25T11:49:51.431Z,43.95
2022-08-25T11:52:56.527Z,45.10
2022-08-25T11:56:04.329Z,45.20
2022-08-25T11:59:06.787Z,45.01
2022-08-25T12:02:32.057Z,44.63
2022-08-25T12:05:46.783Z,42.92
2022-08-25T12:08:51.972Z,43.21
2022-08-25T12:11:58.099Z,43.19
2022-08-25T12:15:18.689Z,43.65
2022-08-25T12:18:22.814Z,43.01
2022-08-25T12:21:31.579Z,42.29
2022-08-25T12:24:47.666Z,43.22
2022-08-25T12:27:50.725Z,41.39
2022-08-25T12:30:59.177Z,41.76
2022-08-25T12:34:26.932Z,40.14
2022-08-25T12:37:30.003Z,40.25
2022-08-25T12:40:37.022Z,40.58
2022-08-25T12:43:45.270Z,41.32
2022-08-25T12:47:05.479Z,41.46
2022-08-25T12:50:48.184Z,41.76
2022-08-25T12:53:52.753Z,40.73
2022-08-25T12:57:03.156Z,41.03
2022-08-25T13:03:55.414Z,42.28
2022-08-25T13:07:17.709Z,42.72
2022-08-25T13:10:42.417Z,42.55
2022-08-25T13:14:05.027Z,42.81
2022-08-25T13:17:09.596Z,42.68
2022-08-25T13:20:16.673Z,43.08
2022-08-25T13:23:25.781Z,43.68
2022-08-25T13:26:32.407Z,43.59
2022-08-25T13:29:48.911Z,40.88
2022-08-25T13:32:51.571Z,41.46
2022-08-25T13:36:16.050Z,42.10
2022-08-25T13:39:45.452Z,42.08
2022-08-25T13:42:55.955Z,41.91
2022-08-25T13:45:58.818Z,40.85
2022-08-25T13:49:08.998Z,40.72
2022-08-25T13:52:29.120Z,41.22
2022-08-25T13:55:51.374Z,42.25
2022-08-25T13:58:57.014Z,42.60
2022-08-25T14:02:00.094Z,41.29
2022-08-25T14:05:02.657Z,42.42
2022-08-25T14:08:23.491Z,42.95
2022-08-25T14:11:30.925Z,42.60
2022-08-25T14:14:34.956Z,43.04
2022-08-25T14:17:40.949Z,44.16
2022-08-25T14:20:47.230Z,44.89
2022-08-25T14:23:49.678Z,44.23
2022-08-25T14:26:53.977Z,44.58
2022-08-25T14:29:57.227Z,44.56
2022-08-25T14:33:01.327Z,44.23
2022-08-25T14:36:05.387Z,44.42
2022-08-25T14:39:08.677Z,44.39
2022-08-25T14:42:13.181Z,44.28
2022-08-25T14:45:19.188Z,44.34
2022-08-25T14:48:35.467Z,44.04
2022-08-25T14:51:40.902Z,43.69
2022-08-25T14:54:43.311Z,44.82
2022-08-25T14:57:45.492Z,44.52
2022-08-25T15:00:49.035Z,44.81
2022-08-25T15:03:55.624Z,45.09
2022-08-25T15:07:01.584Z,45.12
2022-08-25T15:10:05.720Z,44.00
2022-08-25T15:13:09.536Z,45.13
2022-08-25T15:16:23.677Z,45.95
2022-08-25T15:19:36.682Z,45.89
2022-08-25T15:22:39.437Z,45.32
2022-08-25T15:25:46.175Z,44.68
2022-08-25T15:28:50.090Z,44.94
2022-08-25T15:31:53.003Z,44.54
2022-08-25T15:34:55.231Z,43.93
2022-08-25T15:37:57.714Z,44.67
2022-08-25T15:40:59.907Z,44.58
2022-08-25T15:44:02.703Z,44.28
2022-08-25T15:47:05.147Z,44.53
2022-08-25T15:50:17.387Z,45.16
2022-08-25T15:53:21.286Z,45.69
2022-08-25T15:56:26.873Z,45.52
2022-08-25T15:59:29.476Z,45.16
2022-08-25T16:02:33.245Z,45.05
2022-08-25T16:05:48.674Z,46.16
2022-08-25T16:08:50.942Z,46.30
2022-08-25T16:11:58.959Z,46.44
2022-08-25T16:15:05.731Z,46.64
2022-08-25T16:18:08.140Z,48.12
2022-08-25T16:21:13.081Z,49.23
2022-08-25T16:24:15.474Z,49.17
2022-08-25T16:27:18.072Z,50.10
2022-08-25T16:30:21.243Z,50.82
2022-08-25T16:33:23.411Z,50.77
2022-08-25T16:36:27.202Z,51.03
2022-08-25T16:39:30.235Z,51.54
2022-08-25T16:42:33.374Z,52.03
2022-08-25T16:45:36.733Z,51.98
2022-08-25T16:48:41.399Z,51.94
2022-08-25T16:51:43.643Z,52.73
2022-08-25T16:55:04.417Z,53.05
2022-08-25T16:58:08.376Z,54.53
2022-08-25T17:01:15.134Z,54.10
2022-08-25T17:04:17.603Z,54.62
2022-08-25T17:07:23.742Z,54.66
2022-08-25T17:10:26.930Z,55.34
2022-08-25T17:13:29.993Z,55.79
2022-08-25T17:16:35.660Z,55.89
2022-08-25T17:19:38.478Z,55.13
2022-08-25T17:22:43.848Z,56.93
2022-08-25T17:25:46.227Z,56.82
2022-08-25T17:28:48.374Z,57.04
2022-08-25T17:31:51.263Z,57.43
2022-08-25T17:34:53.830Z,57.82
2022-08-25T17:37:56.215Z,58.08
2022-08-25T17:41:01.730Z,58.30
2022-08-25T17:44:04.964Z,58.82
2022-08-25T17:47:07.301Z,59.03
2022-08-25T17:50:10.225Z,59.01
2022-08-25T17:53:13.481Z,59.48
2022-08-25T17:56:21.445Z,59.68
2022-08-25T17:59:24.354Z,60.15
2022-08-25T18:02:26.708Z,61.18
2022-08-25T18:05:32.403Z,60.66
2022-08-25T18:08:36.079Z,60.76
2022-08-25T18:11:40.057Z,60.98
2022-08-25T18:14:42.166Z,61.77
2022-08-25T18:17:48.548Z,61.43
2022-08-25T18:20:50.712Z,61.60
2022-08-25T18:23:53.504Z,61.53
2022-08-25T18:26:55.615Z,62.05
2022-08-25T18:29:58.032Z,62.37
2022-08-25T18:33:00.225Z,62.32
2022-08-25T18:36:02.784Z,61.90
2022-08-25T18:39:24.952Z,62.36
2022-08-25T18:42:28.844Z,62.04
2022-08-25T18:45:38.200Z,61.92
2022-08-25T18:48:41.675Z,61.88
2022-08-25T18:51:45.123Z,62.36
2022-08-25T18:54:47.545Z,62.26
2022-08-25T18:57:50.807Z,62.60
2022-08-25T19:00:53.491Z,63.08
2022-08-25T19:03:56.489Z,64.38
2022-08-25T19:07:00.305Z,64.46
2022-08-25T19:10:02.481Z,64.14
2022-08-25T19:13:08.177Z,63.87
2022-08-25T19:16:36.041Z,63.75
2022-08-25T19:19:38.447Z,64.32
2022-08-25T19:22:42.249Z,64.59
2022-08-25T19:25:44.835Z,65.31
2022-08-25T19:28:50.134Z,65.39
2022-08-25T19:31:53.220Z,65.61
2022-08-25T19:34:56.082Z,65.35
2022-08-25T19:38:00.716Z,65.76
2022-08-25T19:41:10.550Z,65.88
2022-08-25T19:44:17.726Z,66.41
2022-08-25T19:47:20.161Z,66.37
2022-08-25T19:50:23.800Z,66.63
2022-08-25T19:53:25.969Z,67.10
2022-08-25T19:56:28.427Z,67.46
2022-08-25T19:59:43.115Z,66.47
2022-08-25T20:02:47.341Z,66.76
2022-08-25T20:05:51.849Z,67.21
2022-08-25T20:08:58.984Z,67.62
2022-08-25T20:12:03.903Z,68.19
2022-08-25T20:15:09.991Z,67.78
2022-08-25T20:18:12.466Z,68.78
2022-08-25T20:21:14.623Z,69.02
2022-08-25T20:24:35.798Z,69.29
2022-08-25T20:27:43.094Z,69.74
2022-08-25T20:30:45.630Z,70.90
2022-08-25T20:33:47.821Z,71.13
2022-08-25T20:36:52.839Z,71.91
2022-08-25T20:39:55.075Z,71.47
2022-08-25T20:43:01.935Z,72.06
2022-08-25T20:46:06.439Z,72.47
2022-08-25T20:49:09.805Z,73.31
2022-08-25T20:52:12.011Z,74.47
2022-08-25T20:55:17.609Z,74.06
2022-08-25T20:58:21.296Z,74.19
2022-08-25T21:01:37.553Z,74.45
2022-08-25T21:04:40.377Z,74.39
2022-08-25T21:07:52.819Z,75.65
2022-08-25T21:10:54.925Z,75.11
2022-08-25T21:13:58.702Z,74.93
2022-08-25T21:17:02.295Z,75.76
2022-08-25T21:20:07.898Z,75.28
2022-08-25T21:23:10.522Z,75.53
2022-08-25T21:26:24.115Z,75.91
2022-08-25T21:29:30.139Z,75.77
2022-08-25T21:32:33.094Z,76.08
2022-08-25T21:35:39.798Z,76.34
2022-08-25T21:38:42.664Z,76.03
2022-08-25T21:41:46.103Z,76.68
2022-08-25T21:44:48.512Z,75.98
2022-08-25T21:47:51.978Z,76.51
2022-08-25T21:51:13.578Z,76.94
2022-08-25T21:54:17.927Z,76.33
2022-08-25T21:57:23.670Z,78.09
2022-08-25T22:00:26.093Z,77.17
2022-08-25T22:03:28.473Z,78.70
2022-08-25T22:06:31.910Z,79.07
2022-08-25T22:09:35.520Z,80.22
2022-08-25T22:15:40.577Z,80.67
2022-08-25T22:18:43.554Z,80.04
2022-08-25T22:21:46.067Z,79.57
2022-08-25T22:24:48.271Z,79.62
2022-08-25T22:27:56.615Z,81.08
2022-08-25T22:31:04.199Z,81.28
2022-08-25T22:34:07.284Z,80.47
2022-08-25T22:37:09.370Z,81.79
2022-08-25T22:40:12.388Z,80.75
2022-08-25T22:43:14.705Z,80.95
2022-08-25T22:46:18.688Z,80.61
2022-08-25T22:49:21.812Z,81.43
2022-08-25T22:52:33.139Z,82.23
2022-08-25T22:55:42.649Z,82.23
2022-08-25T22:58:51.835Z,81.77
2022-08-25T23:01:54.773Z,82.13
2022-08-25T23:04:57.809Z,82.60
2022-08-25T23:08:03.362Z,82.92
2022-08-25T23:11:09.910Z,83.13
2022-08-25T23:14:12.154Z,82.48
2022-08-25T23:17:15.000Z,83.43
2022-08-25T23:20:36.379Z,84.11
2022-08-25T23:23:47.987Z,84.00
2022-08-25T23:26:51.339Z,84.44
2022-08-25T23:29:53.723Z,84.39
2022-08-25T23:32:55.851Z,85.16
2022-08-25T23:36:00.337Z,85.06
2022-08-25T23:39:04.025Z,85.27
2022-08-25T23:42:08.353Z,85.84
2022-08-25T23:45:10.659Z,85.35
2022-08-25T23:48:14.434Z,85.93
2022-08-25T23:51:27.254Z,86.03
2022-08-25T23:54:31.601Z,86.07
2022-08-25T23:57:33.921Z,86.17
